Time;durP1;ratioP1;P1;durP2;ratioP2;P2;SDS_P1;SDS_P2;PMS_P1;PMS_P2;Temp;Humidity;BMP_temperature;BMP_pressure;BME280_temperature;BME280_humidity;BME280_pressure;Samples;Min_cycle;Max_cycle;Signal;HPM_P1;HPM_P2
2021/04/24 00:02:10;;;;;;;18.50;9.55;;;8.30;59.60;;;;;;5002303;28;20056;-71
2021/04/24 00:04:37;;;;;;;15.15;9.80;;;8.20;60.20;;;;;;5022418;28;20041;-71
2021/04/24 00:07:04;;;;;;;15.43;9.57;;;8.20;59.70;;;;;;5044376;28;20055;-70
2021/04/24 00:09:29;;;;;;;15.23;9.63;;;8.20;59.80;;;;;;5037274;28;20049;-70
2021/04/24 00:11:55;;;;;;;16.10;9.65;;;8.10;59.80;;;;;;5018575;28;20046;-74
2021/04/24 00:14:21;;;;;;;16.98;9.50;;;8.10;59.90;;;;;;4986145;28;20458;-71
2021/04/24 00:16:47;;;;;;;15.80;9.75;;;8.10;60.00;;;;;;5034999;28;20045;-71
2021/04/24 00:19:13;;;;;;;15.80;8.63;;;8.10;60.20;;;;;;5013863;28;20107;-70
2021/04/24 00:21:38;;;;;;;15.75;9.95;;;8.10;60.20;;;;;;5014010;28;20198;-71
2021/04/24 00:24:05;;;;;;;13.88;8.80;;;8.00;60.20;;;;;;4997263;28;20144;-71
2021/04/24 00:26:31;;;;;;;16.33;9.10;;;8.00;60.40;;;;;;5014420;28;20049;-71
2021/04/24 00:28:57;;;;;;;12.48;8.90;;;8.10;60.50;;;;;;5018439;28;20049;-74
2021/04/24 00:31:23;;;;;;;16.50;9.50;;;8.00;60.60;;;;;;5032271;28;20469;-71
2021/04/24 00:33:49;;;;;;;13.02;8.52;;;8.00;60.60;;;;;;5027637;28;20175;-71
2021/04/24 00:36:15;;;;;;;16.70;8.90;;;8.00;60.80;;;;;;5015395;28;20631;-71
2021/04/24 00:38:41;;;;;;;16.88;8.77;;;7.90;60.80;;;;;;5031838;28;20119;-70
2021/04/24 00:41:10;;;;;;;16.98;10.25;;;7.90;60.80;;;;;;5015453;28;20069;-71
2021/04/24 00:43:38;;;;;;;13.68;9.18;;;7.90;60.90;;;;;;5034265;28;20033;-71
2021/04/24 00:46:11;;;;;;;17.25;8.95;;;7.90;60.90;;;;;;5000329;28;20055;-71
2021/04/24 00:48:37;;;;;;;;;;;7.90;61.10;;;;;;5017369;28;20045;-71
2021/04/24 00:51:04;;;;;;;15.40;9.23;;;7.80;61.70;;;;;;5049257;28;19920;-72
2021/04/24 00:53:30;;;;;;;15.27;9.00;;;7.80;60.80;;;;;;5033480;28;20409;-71
2021/04/24 00:55:56;;;;;;;14.98;8.98;;;7.80;60.90;;;;;;5051448;28;20041;-71
2021/04/24 00:58:21;;;;;;;16.00;9.43;;;7.70;61.00;;;;;;5016193;28;20056;-70
2021/04/24 01:00:47;;;;;;;14.40;9.00;;;7.70;61.00;;;;;;5033663;28;20056;-71
2021/04/24 01:03:13;;;;;;;16.38;8.82;;;7.70;61.10;;;;;;5032950;28;20485;-70
2021/04/24 01:05:40;;;;;;;18.85;10.02;;;7.70;61.20;;;;;;5033529;28;20045;-71
2021/04/24 01:08:08;;;;;;;13.80;8.02;;;7.60;61.30;;;;;;5032801;28;20473;-72
2021/04/24 01:10:35;;;;;;;13.40;8.27;;;7.70;61.40;;;;;;5017384;28;20049;-71
2021/04/24 01:13:03;;;;;;;13.40;8.65;;;7.60;61.40;;;;;;5033494;28;20064;-73
2021/04/24 01:15:28;;;;;;;15.10;9.40;;;7.60;61.50;;;;;;5016922;28;20144;-71
2021/04/24 01:17:54;;;;;;;13.90;8.93;;;7.60;61.60;;;;;;5033346;28;20458;-71
2021/04/24 01:20:20;;;;;;;13.77;8.57;;;7.60;61.80;;;;;;5032766;28;20049;-71
2021/04/24 01:22:46;;;;;;;14.77;8.40;;;7.60;61.80;;;;;;5033135;28;20045;-71
2021/04/24 01:25:20;;;;;;;14.75;9.23;;;7.60;62.00;;;;;;5032379;28;20041;-73
2021/04/24 01:27:50;;;;;;;15.38;8.15;;;7.60;62.20;;;;;;5036581;28;20041;-71
2021/04/24 01:30:19;;;;;;;16.10;9.02;;;7.50;62.20;;;;;;5033418;28;20544;-71
2021/04/24 01:32:45;;;;;;;14.57;8.70;;;7.50;62.10;;;;;;5025799;28;20485;-71
2021/04/24 01:35:15;;;;;;;15.88;9.55;;;7.50;62.20;;;;;;5033463;28;20391;-71
2021/04/24 01:37:41;;;;;;;14.25;9.23;;;7.50;62.30;;;;;;5033126;28;20046;-71
2021/04/24 01:40:08;;;;;;;13.57;9.20;;;7.50;62.30;;;;;;5016981;28;20128;-74
2021/04/24 01:42:34;;;;;;;13.20;7.95;;;7.50;62.30;;;;;;5036333;28;20048;-71
2021/04/24 01:45:07;;;;;;;16.50;9.15;;;7.40;62.30;;;;;;5054144;28;20037;-71
2021/04/24 01:47:33;;;;;;;13.82;8.68;;;7.40;62.50;;;;;;5053992;28;20100;-71
2021/04/24 01:49:59;;;;;;;13.20;8.40;;;7.40;62.50;;;;;;5054148;28;20128;-71
2021/04/24 01:52:34;;;;;;;15.68;10.27;;;7.40;62.60;;;;;;5035516;28;20072;-71
2021/04/24 01:55:00;;;;;;;18.65;10.10;;;7.40;62.80;;;;;;5020308;28;20128;-71
2021/04/24 01:57:25;;;;;;;18.10;9.65;;;7.40;62.70;;;;;;5035263;28;20083;-71
2021/04/24 01:59:52;;;;;;;13.27;8.57;;;7.30;62.80;;;;;;5036350;28;20156;-72
2021/04/24 02:02:18;;;;;;;14.02;8.07;;;7.30;62.80;;;;;;5035656;28;20501;-71
2021/04/24 02:04:44;;;;;;;16.60;8.82;;;7.30;62.80;;;;;;5035800;28;20425;-71
2021/04/24 02:07:12;;;;;;;17.15;9.52;;;7.30;63.00;;;;;;5021431;28;20052;-74
2021/04/24 02:09:38;;;;;;;15.07;8.32;;;7.30;63.10;;;;;;5023636;28;20047;-71
2021/04/24 02:12:04;;;;;;;13.25;7.80;;;7.30;63.20;;;;;;5023621;28;20544;-70
2021/04/24 02:14:51;;;;;;;16.52;8.88;;;7.20;63.00;;;;;;5039328;28;20049;-71
2021/04/24 02:17:26;;;;;;;13.88;8.68;;;7.20;63.10;;;;;;5042367;28;20056;-72
2021/04/24 02:19:52;;;;;;;15.52;9.10;;;7.30;63.30;;;;;;5040253;28;20052;-71
2021/04/24 02:22:18;;;;;;;13.93;8.60;;;7.20;63.20;;;;;;5006982;28;20528;-71
2021/04/24 02:24:53;;;;;;;18.20;9.32;;;7.20;63.30;;;;;;5023935;28;20132;-71
2021/04/24 02:27:18;;;;;;;15.43;8.23;;;7.20;63.50;;;;;;5057654;28;20466;-69
2021/04/24 02:29:44;;;;;;;14.20;8.32;;;7.20;63.50;;;;;;5040619;28;20041;-71
2021/04/24 02:32:11;;;;;;;12.98;8.25;;;7.20;63.50;;;;;;5007622;28;20124;-70
2021/04/24 02:34:38;;;;;;;12.75;8.82;;;7.20;63.50;;;;;;5040157;28;20089;-70
2021/04/24 02:37:05;;;;;;;15.85;8.55;;;7.20;63.60;;;;;;5058091;28;20093;-70
2021/04/24 02:39:36;;;;;;;15.68;8.77;;;7.10;63.50;;;;;;5039727;28;20037;-71
2021/04/24 02:42:03;;;;;;;15.23;9.20;;;7.10;63.70;;;;;;5058025;28;20044;-71
2021/04/24 02:44:31;;;;;;;14.75;7.88;;;7.10;63.60;;;;;;5039759;28;20048;-71
2021/04/24 02:46:58;;;;;;;15.07;7.95;;;7.10;63.80;;;;;;5058335;28;20481;-70
2021/04/24 02:49:23;;;;;;;15.23;8.65;;;7.10;63.90;;;;;;5057722;28;20064;-71
2021/04/24 02:51:49;;;;;;;16.33;8.90;;;7.10;63.90;;;;;;5040453;28;20478;-71
2021/04/24 02:54:15;;;;;;;13.70;7.72;;;7.10;64.00;;;;;;5058097;28;20477;-74
2021/04/24 02:56:41;;;;;;;17.10;8.82;;;7.10;64.00;;;;;;5040453;28;20033;-71
2021/04/24 02:59:07;;;;;;;15.23;9.38;;;7.10;64.00;;;;;;5058305;28;20061;-72
2021/04/24 03:01:32;;;;;;;13.23;8.70;;;7.00;64.00;;;;;;5039774;28;20104;-70
2021/04/24 03:03:58;;;;;;;14.65;9.50;;;7.00;64.10;;;;;;5007454;28;20423;-71
2021/04/24 03:06:24;;;;;;;14.65;10.02;;;7.00;64.20;;;;;;5021861;28;20048;-71
2021/04/24 03:08:50;;;;;;;13.85;9.23;;;6.90;64.20;;;;;;5056985;28;20047;-71
2021/04/24 03:11:15;;;;;;;15.80;9.88;;;7.00;64.20;;;;;;5056781;28;20481;-71
2021/04/24 03:13:42;;;;;;;15.52;8.65;;;7.00;64.30;;;;;;5022032;28;20060;-71
2021/04/24 03:16:10;;;;;;;15.23;8.52;;;6.90;64.40;;;;;;5039010;28;20402;-70
2021/04/24 03:18:35;;;;;;;16.15;8.40;;;6.90;64.40;;;;;;5021289;28;20052;-70
2021/04/24 03:21:01;;;;;;;15.93;8.27;;;6.90;64.50;;;;;;5056740;28;20053;-71
2021/04/24 03:23:27;;;;;;;14.38;7.85;;;6.90;64.50;;;;;;5038296;28;20538;-71
2021/04/24 03:25:53;;;;;;;14.77;8.32;;;6.90;64.50;;;;;;5039049;28;20117;-71
2021/04/24 03:28:18;;;;;;;13.98;8.65;;;6.80;64.40;;;;;;5056897;28;20041;-71
2021/04/24 03:30:44;;;;;;;13.18;9.02;;;6.80;64.60;;;;;;5051135;28;20069;-70
2021/04/24 03:33:10;;;;;;;16.58;8.77;;;6.80;64.50;;;;;;5022856;28;20048;-71
2021/04/24 03:35:36;;;;;;;14.20;8.77;;;6.80;64.60;;;;;;5018113;28;20474;-71
2021/04/24 03:38:02;;;;;;;14.93;9.63;;;6.70;64.70;;;;;;5002733;28;20044;-71
2021/04/24 03:40:28;;;;;;;16.50;9.18;;;6.80;64.80;;;;;;5035964;28;20116;-73
2021/04/24 03:42:54;;;;;;;15.90;9.50;;;6.70;64.70;;;;;;5018934;28;20057;-71
2021/04/24 03:45:23;;;;;;;16.38;8.85;;;6.70;64.70;;;;;;5018975;28;20045;-71
2021/04/24 03:47:50;;;;;;;15.40;9.07;;;6.70;64.80;;;;;;5003024;28;20056;-71
2021/04/24 03:50:16;;;;;;;13.60;8.20;;;6.70;64.80;;;;;;5019694;28;20103;-71
2021/04/24 03:52:43;;;;;;;15.27;8.48;;;6.60;64.80;;;;;;5019337;28;20195;-71
2021/04/24 03:55:09;;;;;;;14.80;8.35;;;6.70;64.80;;;;;;5003428;28;20042;-70
2021/04/24 03:57:35;;;;;;;15.32;8.60;;;6.60;64.80;;;;;;5018889;28;20605;-71
2021/04/24 04:00:01;;;;;;;14.95;8.02;;;6.60;64.80;;;;;;5020177;28;20061;-71
2021/04/24 04:02:26;;;;;;;14.60;8.38;;;6.60;64.90;;;;;;5019535;28;20474;-74
2021/04/24 04:04:52;;;;;;;12.95;8.20;;;6.60;64.90;;;;;;5019667;28;20049;-71
2021/04/24 04:07:18;;;;;;;12.60;7.88;;;6.60;65.00;;;;;;5020194;28;20069;-71
2021/04/24 04:09:44;;;;;;;16.13;9.02;;;6.50;65.00;;;;;;5037477;28;20064;-71
2021/04/24 04:12:10;;;;;;;20.15;11.23;;;6.50;65.00;;;;;;5038331;28;20037;-70
2021/04/24 04:14:37;;;;;;;21.30;14.50;;;6.50;65.10;;;;;;5037184;28;20048;-70
2021/04/24 04:17:03;;;;;;;17.90;11.25;;;6.50;65.10;;;;;;5037233;28;20486;-71
2021/04/24 04:19:29;;;;;;;19.15;10.23;;;6.50;65.20;;;;;;5020050;28;20046;-73
2021/04/24 04:21:54;;;;;;;16.70;9.35;;;6.50;65.20;;;;;;5036974;28;20094;-70
2021/04/24 04:24:20;;;;;;;15.73;9.15;;;6.50;65.20;;;;;;5037864;28;20474;-70
2021/04/24 04:26:46;;;;;;;14.10;7.97;;;6.40;65.20;;;;;;5037114;28;20088;-70
2021/04/24 04:29:12;;;;;;;14.65;8.48;;;6.40;65.20;;;;;;5019008;28;20107;-70
2021/04/24 04:31:37;;;;;;;15.25;8.77;;;6.40;65.30;;;;;;5018969;28;20045;-71
2021/04/24 04:34:03;;;;;;;13.88;8.30;;;6.40;65.30;;;;;;5019640;28;20045;-69
2021/04/24 04:36:29;;;;;;;14.65;9.02;;;6.40;65.30;;;;;;5036888;28;20045;-73
2021/04/24 04:38:58;;;;;;;15.32;8.48;;;6.40;65.40;;;;;;5037074;28;20041;-69
2021/04/24 04:41:24;;;;;;;12.85;8.02;;;6.40;65.40;;;;;;5037386;28;20123;-70
2021/04/24 04:43:50;;;;;;;12.93;8.63;;;6.40;65.50;;;;;;5002521;28;20049;-70
2021/04/24 04:46:16;;;;;;;14.20;9.70;;;6.30;65.50;;;;;;5002645;28;20096;-70
2021/04/24 04:48:42;;;;;;;17.13;11.18;;;6.30;65.60;;;;;;5002278;28;20060;-72
2021/04/24 04:51:07;;;;;;;14.07;9.70;;;6.30;65.60;;;;;;5019403;28;20466;-71
2021/04/24 04:53:33;;;;;;;14.32;9.38;;;6.30;65.60;;;;;;5019308;28;20046;-73
2021/04/24 04:55:59;;;;;;;14.90;9.90;;;6.30;65.70;;;;;;5019568;28;20049;-71
2021/04/24 04:58:25;;;;;;;13.18;8.65;;;6.30;65.80;;;;;;5020214;28;20040;-70
2021/04/24 05:00:51;;;;;;;19.30;9.27;;;6.30;65.70;;;;;;5021892;28;20113;-70
2021/04/24 05:03:17;;;;;;;16.55;9.85;;;6.30;65.80;;;;;;5021902;28;20077;-71
2021/04/24 05:05:46;;;;;;;15.45;8.95;;;6.40;65.90;;;;;;5021441;28;20441;-71
2021/04/24 05:08:12;;;;;;;14.80;8.95;;;6.40;65.80;;;;;;4989841;28;20056;-71
2021/04/24 05:10:37;;;;;;;14.02;8.13;;;6.40;65.80;;;;;;5039297;28;20049;-73
2021/04/24 05:13:03;;;;;;;14.93;8.85;;;6.40;65.80;;;;;;5021701;28;20140;-72
2021/04/24 05:15:29;;;;;;;13.80;8.38;;;6.40;65.70;;;;;;5005696;28;20045;-70
2021/04/24 05:17:54;;;;;;;13.02;8.38;;;6.40;65.60;;;;;;5004645;28;20052;-72
2021/04/24 05:20:20;;;;;;;15.02;8.73;;;6.40;65.80;;;;;;5021928;28;20069;-71
2021/04/24 05:22:47;;;;;;;14.30;8.45;;;6.50;65.80;;;;;;5005232;28;20109;-71
2021/04/24 05:25:14;;;;;;;14.52;8.82;;;6.50;65.80;;;;;;5005643;28;20041;-71
2021/04/24 05:27:44;;;;;;;16.10;9.00;;;6.50;65.80;;;;;;5021705;28;20046;-74
2021/04/24 05:30:12;;;;;;;13.10;9.00;;;6.50;65.90;;;;;;5039406;28;20049;-71
2021/04/24 05:32:38;;;;;;;14.82;8.68;;;6.60;66.00;;;;;;4989142;28;20076;-73
2021/04/24 05:35:04;;;;;;;14.48;8.60;;;6.60;66.10;;;;;;5038930;28;20049;-71
2021/04/24 05:37:32;;;;;;;15.40;8.82;;;6.60;66.00;;;;;;5039042;28;20470;-71
2021/04/24 05:39:59;;;;;;;15.52;8.88;;;6.60;66.10;;;;;;5020917;28;20037;-71
2021/04/24 05:42:28;;;;;;;12.73;7.88;;;6.70;66.10;;;;;;5038068;28;20097;-72
2021/04/24 05:44:54;;;;;;;16.17;9.07;;;6.70;66.10;;;;;;5004399;28;20083;-71
2021/04/24 05:47:21;;;;;;;13.00;7.97;;;6.70;66.20;;;;;;5039230;28;20045;-73
2021/04/24 05:49:47;;;;;;;16.02;8.95;;;6.70;66.10;;;;;;4996171;28;20062;-71
2021/04/24 05:52:12;;;;;;;13.65;8.43;;;6.70;66.20;;;;;;4997176;28;20468;-71
2021/04/24 05:54:38;;;;;;;14.27;8.65;;;6.70;66.20;;;;;;4981277;28;20058;-71
2021/04/24 05:57:04;;;;;;;15.48;9.23;;;6.70;66.20;;;;;;4980486;28;20058;-71
2021/04/24 05:59:30;;;;;;;13.55;8.65;;;6.80;66.20;;;;;;4980978;28;20137;-71
2021/04/24 06:01:56;;;;;;;11.38;7.82;;;6.80;66.20;;;;;;4996594;28;20101;-71
2021/04/24 06:04:24;;;;;;;14.85;8.32;;;6.80;66.00;;;;;;4997180;28;20050;-71
2021/04/24 06:06:50;;;;;;;13.60;8.52;;;6.80;65.80;;;;;;4996605;28;20054;-71
2021/04/24 06:09:16;;;;;;;15.75;8.75;;;6.90;65.50;;;;;;4981047;28;20129;-71
2021/04/24 06:11:41;;;;;;;15.02;8.45;;;6.90;65.30;;;;;;4980557;28;20069;-71
2021/04/24 06:14:07;;;;;;;15.27;9.10;;;6.90;65.20;;;;;;4980262;28;20074;-71
2021/04/24 06:16:33;;;;;;;15.85;8.35;;;6.90;65.30;;;;;;4996727;28;20074;-71
2021/04/24 06:18:59;;;;;;;14.98;8.15;;;6.90;65.00;;;;;;4996226;28;20051;-71
2021/04/24 06:21:24;;;;;;;13.98;7.63;;;7.00;65.00;;;;;;5011800;28;20528;-70
2021/04/24 06:23:50;;;;;;;13.18;7.78;;;7.00;65.00;;;;;;5020263;28;20045;-72
2021/04/24 06:26:16;;;;;;;12.82;7.90;;;7.00;64.80;;;;;;5020798;28;20064;-70
2021/04/24 06:28:42;;;;;;;11.57;7.78;;;7.00;65.00;;;;;;5004319;28;20041;-70
2021/04/24 06:31:08;;;;;;;12.75;7.50;;;7.00;65.00;;;;;;5020430;28;20050;-71
2021/04/24 06:33:34;;;;;;;14.30;7.57;;;7.10;65.40;;;;;;5004442;28;20496;-71
2021/04/24 06:35:59;;;;;;;14.43;8.63;;;7.10;65.30;;;;;;5020310;28;20137;-72
2021/04/24 06:38:25;;;;;;;14.10;8.68;;;7.10;65.60;;;;;;5020772;28;20462;-71
2021/04/24 06:40:52;;;;;;;13.85;8.35;;;7.20;65.40;;;;;;5038017;28;20037;-72
2021/04/24 06:43:17;;;;;;;14.50;8.48;;;7.20;65.50;;;;;;5004801;28;20136;-71
2021/04/24 06:45:43;;;;;;;15.60;7.45;;;7.20;66.50;;;;;;5004894;28;20041;-71
2021/04/24 06:48:09;;;;;;;14.65;8.10;;;7.30;66.20;;;;;;5020380;28;20676;-69
2021/04/24 06:50:36;;;;;;;15.15;8.30;;;7.30;66.20;;;;;;5004495;28;20069;-70
2021/04/24 06:53:03;;;;;;;14.15;7.63;;;7.40;66.40;;;;;;5005582;28;20125;-70
2021/04/24 06:55:29;;;;;;;14.15;7.60;;;7.40;66.60;;;;;;5007787;28;20052;-74
2021/04/24 06:57:55;;;;;;;13.15;7.80;;;7.40;66.80;;;;;;5023597;28;20055;-71
2021/04/24 07:00:21;;;;;;;10.00;6.30;;;7.50;67.00;;;;;;5023693;28;20053;-70
2021/04/24 07:02:47;;;;;;;11.95;7.55;;;7.50;67.10;;;;;;5026549;28;20048;-71
2021/04/24 07:05:15;;;;;;;17.15;7.95;;;7.60;67.20;;;;;;5041573;28;20132;-71
2021/04/24 07:07:41;;;;;;;11.85;6.53;;;7.60;67.30;;;;;;5042620;28;20080;-70
2021/04/24 07:10:08;;;;;;;14.68;8.15;;;7.60;67.40;;;;;;5043401;28;20041;-70
2021/04/24 07:12:34;;;;;;;14.32;7.15;;;7.60;67.50;;;;;;5042806;28;20163;-70
2021/04/24 07:14:59;;;;;;;13.38;6.80;;;7.70;67.70;;;;;;5049061;28;20047;-70
2021/04/24 07:17:25;;;;;;;12.07;8.02;;;7.80;67.70;;;;;;5034186;28;20045;-72
2021/04/24 07:19:52;;;;;;;15.00;7.32;;;7.80;67.70;;;;;;5032080;28;20044;-72
2021/04/24 07:22:17;;;;;;;12.10;7.13;;;7.90;67.90;;;;;;5032927;28;20536;-72
2021/04/24 07:24:44;;;;;;;12.52;7.38;;;7.90;67.80;;;;;;5037407;28;20092;-72
2021/04/24 07:27:12;;;;;;;13.68;7.63;;;7.90;67.60;;;;;;5053479;28;20044;-72
2021/04/24 07:29:38;;;;;;;10.85;6.90;;;8.00;67.60;;;;;;5021586;28;20052;-71
2021/04/24 07:32:04;;;;;;;13.80;6.25;;;8.10;67.70;;;;;;5052371;28;20069;-71
2021/04/24 07:34:30;;;;;;;12.82;5.38;;;8.10;67.60;;;;;;5048814;28;20044;-71
2021/04/24 07:36:56;;;;;;;14.38;5.43;;;8.20;67.50;;;;;;5030071;28;20072;-74
2021/04/24 07:39:22;;;;;;;12.23;5.82;;;8.30;67.40;;;;;;5043225;28;20034;-71
2021/04/24 07:41:48;;;;;;;10.20;5.07;;;8.30;67.10;;;;;;5023850;28;20401;-71
2021/04/24 07:44:14;;;;;;;10.55;5.57;;;8.30;67.10;;;;;;5041161;28;20064;-72
2021/04/24 07:46:39;;;;;;;9.88;4.97;;;8.40;67.00;;;;;;5048349;28;20060;-72
2021/04/24 07:49:05;;;;;;;11.35;5.30;;;8.50;66.90;;;;;;5035700;28;20041;-72
2021/04/24 07:51:31;;;;;;;10.88;5.65;;;8.50;66.80;;;;;;5036710;28;20045;-71
2021/04/24 07:53:57;;;;;;;10.77;5.30;;;8.60;66.70;;;;;;5016730;28;20034;-73
2021/04/24 07:56:22;;;;;;;7.45;5.15;;;8.60;67.00;;;;;;5035034;28;20068;-71
2021/04/24 07:58:49;;;;;;;10.23;4.82;;;8.70;67.00;;;;;;5053039;28;20040;-73
2021/04/24 08:01:17;;;;;;;11.02;5.25;;;8.80;66.60;;;;;;5052752;28;20052;-71
2021/04/24 08:03:42;;;;;;;10.73;5.63;;;8.80;66.00;;;;;;5051696;28;20467;-72
2021/04/24 08:06:08;;;;;;;10.45;5.38;;;8.80;65.80;;;;;;5016023;28;20099;-72
2021/04/24 08:08:34;;;;;;;10.65;5.18;;;8.90;65.90;;;;;;5016544;28;20049;-72
2021/04/24 08:11:00;;;;;;;11.20;4.70;;;8.90;65.60;;;;;;5031908;28;20045;-74
2021/04/24 08:13:25;;;;;;;14.23;5.75;;;9.00;65.30;;;;;;5048799;28;20412;-70
2021/04/24 08:15:54;;;;;;;10.80;4.97;;;9.00;65.00;;;;;;5016101;28;20053;-72
2021/04/24 08:18:19;;;;;;;14.95;5.22;;;9.00;64.60;;;;;;5047980;28;20071;-73
2021/04/24 08:20:45;;;;;;;9.68;5.13;;;9.00;64.40;;;;;;5030016;28;20072;-72
2021/04/24 08:23:11;;;;;;;8.88;4.97;;;9.10;64.40;;;;;;5027647;28;20041;-71
2021/04/24 08:25:37;;;;;;;9.38;5.47;;;9.10;64.60;;;;;;5013247;28;20127;-74
2021/04/24 08:28:03;;;;;;;10.88;4.95;;;9.20;65.20;;;;;;5011742;28;20072;-75
2021/04/24 08:30:30;;;;;;;11.25;5.38;;;9.30;65.10;;;;;;5027270;28;20041;-70
2021/04/24 08:32:56;;;;;;;10.10;5.15;;;9.40;65.10;;;;;;5051225;28;20041;-71
2021/04/24 08:35:21;;;;;;;7.90;5.53;;;9.40;64.90;;;;;;5032379;28;20182;-73
2021/04/24 08:37:47;;;;;;;9.45;4.35;;;9.40;64.70;;;;;;5022844;28;20041;-70
2021/04/24 08:40:14;;;;;;;9.63;3.92;;;9.60;65.00;;;;;;5033222;28;20045;-71
2021/04/24 08:42:40;;;;;;;9.35;5.00;;;9.80;66.10;;;;;;5052181;28;20053;-71
2021/04/24 08:45:22;;;;;;;7.70;4.40;;;10.20;65.00;;;;;;5033279;28;20045;-74
2021/04/24 08:47:52;;;;;;;11.65;4.60;;;10.20;64.20;;;;;;5013205;28;20084;-74
2021/04/24 08:50:21;;;;;;;8.77;4.57;;;10.30;63.40;;;;;;5019412;28;20048;-72
2021/04/24 08:52:47;;;;;;;7.85;4.50;;;10.30;62.90;;;;;;5019294;28;20067;-72
2021/04/24 08:55:23;;;;;;;8.90;4.80;;;10.30;62.80;;;;;;5028002;28;20052;-72
2021/04/24 08:57:49;;;;;;;12.00;4.82;;;10.50;63.40;;;;;;5030509;28;20048;-74
2021/04/24 09:00:21;;;;;;;8.38;4.32;;;10.50;62.80;;;;;;5035442;28;20064;-74
2021/04/24 09:02:49;;;;;;;9.65;4.88;;;10.50;62.30;;;;;;5024767;28;20049;-76
2021/04/24 09:05:21;;;;;;;9.50;5.15;;;10.60;62.10;;;;;;5015556;28;20123;-75
2021/04/24 09:07:47;;;;;;;10.45;4.95;;;10.60;61.40;;;;;;5022083;28;20038;-75
2021/04/24 09:10:16;;;;;;;10.07;5.15;;;10.60;61.10;;;;;;5003777;28;20044;-73
2021/04/24 09:12:45;;;;;;;8.90;4.88;;;10.60;61.10;;;;;;4992643;28;20061;-71
2021/04/24 09:15:20;;;;;;;8.43;5.07;;;10.70;61.00;;;;;;5058724;28;20052;-72
2021/04/24 09:17:59;;;;;;;15.68;6.13;;;10.70;60.80;;;;;;5008689;28;20063;-74
2021/04/24 09:20:34;;;;;;;11.55;5.38;;;10.80;62.80;;;;;;5025284;28;20473;-75
2021/04/24 09:23:04;;;;;;;10.15;4.05;;;11.30;62.70;;;;;;5039221;28;20115;-72
2021/04/24 09:25:47;;;;;;;8.90;4.28;;;11.70;62.20;;;;;;5039629;28;20052;-73
2021/04/24 09:28:27;;;;;;;8.82;4.97;;;12.30;61.20;;;;;;5003731;28;20037;-73
2021/04/24 09:30:53;;;;;;;10.23;5.07;;;12.60;59.40;;;;;;4984897;28;20060;-72
2021/04/24 09:33:19;;;;;;;9.73;5.20;;;12.60;58.70;;;;;;5012188;28;20048;-71
2021/04/24 09:35:49;;;;;;;9.43;5.22;;;12.60;58.20;;;;;;5013470;28;20057;-72
2021/04/24 09:38:22;;;;;;;9.77;5.25;;;12.60;57.80;;;;;;5012311;28;20045;-72
2021/04/24 09:41:23;;;;;;;9.48;4.50;;;12.60;57.60;;;;;;5030498;28;20079;-71
2021/04/24 09:44:09;;;;;;;10.00;4.97;;;12.60;56.90;;;;;;4992380;28;20144;-71
2021/04/24 09:46:38;;;;;;;8.77;4.47;;;12.60;56.90;;;;;;5012606;28;20045;-72
2021/04/24 09:49:26;;;;;;;8.35;4.07;;;12.70;57.50;;;;;;5030683;28;20139;-71
2021/04/24 09:51:57;;;;;;;9.57;4.07;;;12.70;57.50;;;;;;5030762;28;20120;-71
2021/04/24 09:54:36;;;;;;;6.82;3.75;;;12.80;57.60;;;;;;5030148;28;20038;-72
2021/04/24 09:57:05;;;;;;;8.23;4.00;;;12.90;57.70;;;;;;5013045;28;20046;-71
2021/04/24 09:59:32;;;;;;;9.77;4.43;;;13.00;57.70;;;;;;5029878;28;20050;-72
2021/04/24 10:01:58;;;;;;;7.53;4.30;;;13.20;57.30;;;;;;5012954;28;20042;-72
2021/04/24 10:04:24;;;;;;;11.40;4.30;;;13.30;57.10;;;;;;5029923;28;20045;-73
2021/04/24 10:06:54;;;;;;;6.85;3.97;;;13.40;56.30;;;;;;5030409;28;20045;-72
2021/04/24 10:09:30;;;;;;;7.95;4.18;;;13.50;56.00;;;;;;4996281;28;20068;-74
2021/04/24 10:12:04;;;;;;;9.15;4.30;;;13.70;55.60;;;;;;5029535;28;20041;-73
2021/04/24 10:14:44;;;;;;;9.23;4.40;;;13.80;55.50;;;;;;5012181;28;20057;-72
2021/04/24 10:17:17;;;;;;;8.88;4.35;;;13.90;55.20;;;;;;5030138;28;20048;-72
2021/04/24 10:19:43;;;;;;;6.72;4.00;;;14.10;54.80;;;;;;5030499;28;20045;-71
2021/04/24 10:22:10;;;;;;;9.07;4.28;;;14.20;54.70;;;;;;4995911;28;20054;-72
2021/04/24 10:24:36;;;;;;;7.78;4.00;;;14.30;54.30;;;;;;5012144;28;20716;-71
2021/04/24 10:27:02;;;;;;;8.27;3.35;;;14.30;53.80;;;;;;4996454;28;20042;-75
2021/04/24 10:29:28;;;;;;;5.05;2.97;;;14.40;53.40;;;;;;5033243;28;20049;-71
2021/04/24 10:31:54;;;;;;;7.63;3.90;;;14.50;53.30;;;;;;5034389;28;20525;-72
2021/04/24 10:34:20;;;;;;;7.63;3.45;;;14.60;52.90;;;;;;4999844;28;20048;-77
2021/04/24 10:36:46;;;;;;;8.05;3.83;;;14.70;52.60;;;;;;5016583;28;20128;-71
2021/04/24 10:39:22;;;;;;;10.43;3.85;;;14.80;52.50;;;;;;5016058;28;20049;-71
2021/04/24 10:42:07;;;;;;;8.20;3.70;;;14.90;52.20;;;;;;5016626;28;20045;-72
2021/04/24 10:44:58;;;;;;;8.30;3.67;;;15.00;52.00;;;;;;5033465;28;20060;-72
2021/04/24 10:47:38;;;;;;;;;;;15.20;50.80;;;;;;5033105;28;20037;-73
2021/04/24 10:50:05;;;;;;;8.20;3.17;;;15.30;49.80;;;;;;5033169;28;20007;-72
2021/04/24 10:52:31;;;;;;;5.15;2.90;;;15.40;50.20;;;;;;5014991;28;20037;-72
2021/04/24 10:55:27;;;;;;;5.00;2.47;;;15.50;49.70;;;;;;5016419;28;20492;-72
2021/04/24 10:57:54;;;;;;;6.38;2.72;;;15.60;48.40;;;;;;5032323;28;20058;-71
2021/04/24 11:00:30;;;;;;;7.13;2.53;;;15.80;48.90;;;;;;5016156;28;20061;-71
2021/04/24 11:02:57;;;;;;;5.50;2.65;;;15.90;47.70;;;;;;5016196;28;20053;-72
2021/04/24 11:05:30;;;;;;;6.57;2.72;;;16.10;47.80;;;;;;5015928;28;20103;-76
2021/04/24 11:08:08;;;;;;;8.82;2.75;;;16.20;47.20;;;;;;5015565;28;20063;-75
2021/04/24 11:10:56;;;;;;;8.65;3.15;;;16.30;46.30;;;;;;5033085;28;20103;-71
2021/04/24 11:13:23;;;;;;;7.10;3.17;;;16.40;46.10;;;;;;5002178;28;20052;-72
2021/04/24 11:15:49;;;;;;;8.70;2.92;;;16.50;45.90;;;;;;5033951;28;20520;-74
2021/04/24 11:18:17;;;;;;;5.53;2.50;;;16.60;45.80;;;;;;5024401;28;20041;-73
2021/04/24 11:20:51;;;;;;;7.13;2.53;;;16.70;45.80;;;;;;5016161;28;20045;-73
2021/04/24 11:23:37;;;;;;;6.00;2.45;;;16.70;43.20;;;;;;5016386;28;20060;-71
2021/04/24 11:26:08;;;;;;;4.32;2.33;;;16.80;45.70;;;;;;5040848;28;20375;-72
2021/04/24 11:28:40;;;;;;;6.57;2.58;;;17.00;46.00;;;;;;5015868;28;20075;-74
2021/04/24 11:31:06;;;;;;;10.68;3.00;;;17.20;45.10;;;;;;5003100;28;20071;-73
2021/04/24 11:33:31;;;;;;;7.28;2.50;;;17.30;44.60;;;;;;5007888;28;20046;-71
2021/04/24 11:39:01;;;;;;;5.68;2.28;;;17.70;43.60;;;;;;5043601;28;20136;-73
2021/04/24 11:41:27;;;;;;;6.68;2.53;;;18.10;43.30;;;;;;5051287;28;20041;-76
2021/04/24 11:43:55;;;;;;;5.28;1.95;;;18.30;42.60;;;;;;5043092;28;20053;-72
2021/04/24 11:46:35;;;;;;;5.25;2.05;;;18.50;41.30;;;;;;5028120;28;20040;-72
2021/04/24 11:49:20;;;;;;;4.35;2.15;;;18.80;38.30;;;;;;5023996;28;20091;-73
2021/04/24 11:51:59;;;;;;;4.13;1.40;;;19.00;39.80;;;;;;5009177;28;20037;-74
2021/04/24 11:54:38;;;;;;;4.65;1.63;;;19.10;36.30;;;;;;5049450;28;20131;-74
2021/04/24 11:57:22;;;;;;;3.70;1.58;;;19.10;35.60;;;;;;5027407;28;20033;-74
2021/04/24 11:59:50;;;;;;;4.32;1.60;;;19.10;33.10;;;;;;5034371;28;20497;-73
2021/04/24 12:02:34;;;;;;;3.78;1.45;;;19.20;34.00;;;;;;5032600;28;20045;-75
2021/04/24 12:05:08;;;;;;;3.70;1.55;;;19.20;32.70;;;;;;5002094;28;20049;-73
2021/04/24 12:07:44;;;;;;;4.65;1.83;;;19.20;32.80;;;;;;5018250;28;20398;-81
2021/04/24 12:10:12;;;;;;;4.10;1.60;;;19.30;32.00;;;;;;5027697;28;20052;-72
2021/04/24 12:12:42;;;;;;;4.40;1.90;;;19.30;32.50;;;;;;5017209;28;20075;-73
2021/04/24 12:15:12;;;;;;;5.20;1.83;;;19.30;31.60;;;;;;5002806;28;20063;-74
2021/04/24 12:17:55;;;;;;;5.45;1.80;;;19.30;31.70;;;;;;4997903;28;20076;-74
2021/04/24 12:20:37;;;;;;;7.95;2.40;;;19.40;33.70;;;;;;5042351;28;20103;-74
2021/04/24 12:23:08;;;;;;;3.75;1.73;;;19.70;35.80;;;;;;5028612;28;20049;-75
2021/04/24 12:25:36;;;;;;;4.60;1.63;;;19.90;35.70;;;;;;5007287;28;20560;-76
2021/04/24 12:28:04;;;;;;;4.40;1.65;;;20.20;35.60;;;;;;5021428;28;20045;-74
2021/04/24 12:30:37;;;;;;;3.72;1.88;;;20.30;35.20;;;;;;5003884;28;20037;-73
2021/04/24 12:33:03;;;;;;;5.93;2.03;;;20.50;35.00;;;;;;5007252;28;20405;-74
2021/04/24 12:35:33;;;;;;;8.63;2.28;;;20.80;35.10;;;;;;5021643;28;20037;-76
2021/04/24 12:38:09;;;;;;;8.27;2.55;;;20.90;35.30;;;;;;4997945;28;20049;-74
2021/04/24 12:40:45;;;;;;;5.00;2.17;;;21.10;35.00;;;;;;5023630;28;20071;-73
2021/04/24 12:43:16;;;;;;;6.88;2.08;;;21.10;32.90;;;;;;5012812;28;20429;-73
2021/04/24 12:45:43;;;;;;;7.57;2.60;;;21.10;32.90;;;;;;5009426;28;20103;-75
2021/04/24 12:48:34;;;;;;;7.47;2.20;;;21.00;32.70;;;;;;5011515;28;20057;-74
2021/04/24 12:51:00;;;;;;;7.38;2.17;;;21.00;31.40;;;;;;5003086;28;20200;-74
2021/04/24 12:53:42;;;;;;;4.47;1.88;;;21.00;32.30;;;;;;4995988;28;20048;-75
2021/04/24 12:56:08;;;;;;;;;;;20.90;31.50;;;;;;5012710;28;20042;-73
2021/04/24 12:58:39;;;;;;;6.03;2.63;;;20.80;31.50;;;;;;5029203;28;19990;-73